sensor_id;sensor_type;location;lat;lon;timestamp;pressure;altitude;pressure_sealevel;temperature;humidity
64675;BME280;51090;51.512;11.332;2022-12-20T00:01:18;99655.69;;;6.66;100.00
64675;BME280;51090;51.512;11.332;2022-12-20T00:03:45;99659.97;;;6.67;100.00
64675;BME280;51090;51.512;11.332;2022-12-20T00:06:11;99653.72;;;6.68;100.00
64675;BME280;51090;51.512;11.332;2022-12-20T00:08:37;99669.91;;;6.73;100.00
64675;BME280;51090;51.512;11.332;2022-12-20T00:11:05;99658.38;;;6.74;100.00
64675;BME280;51090;51.512;11.332;2022-12-20T00:13:32;99667.47;;;6.80;100.00
64675;BME280;51090;51.512;11.332;2022-12-20T00:16:09;99673.13;;;6.85;100.00
64675;BME280;51090;51.512;11.332;2022-12-20T00:18:37;99654.66;;;6.85;100.00
64675;BME280;51090;51.512;11.332;2022-12-20T00:21:04;99660.28;;;6.90;100.00
64675;BME280;51090;51.512;11.332;2022-12-20T00:23:31;99650.56;;;6.90;100.00
64675;BME280;51090;51.512;11.332;2022-12-20T00:26:10;99633.13;;;6.89;100.00
64675;BME280;51090;51.512;11.332;2022-12-20T00:28:38;99622.22;;;6.84;100.00
64675;BME280;51090;51.512;11.332;2022-12-20T00:31:05;99629.81;;;6.87;100.00
64675;BME280;51090;51.512;11.332;2022-12-20T00:33:36;99618.75;;;6.84;100.00
64675;BME280;51090;51.512;11.332;2022-12-20T00:36:03;99634.06;;;6.88;100.00
64675;BME280;51090;51.512;11.332;2022-12-20T00:38:29;99623.88;;;6.93;100.00
64675;BME280;51090;51.512;11.332;2022-12-20T00:41:07;99622.28;;;7.01;100.00
64675;BME280;51090;51.512;11.332;2022-12-20T00:43:33;99615.47;;;6.90;100.00
64675;BME280;51090;51.512;11.332;2022-12-20T00:45:59;99619.28;;;6.95;100.00
64675;BME280;51090;51.512;11.332;2022-12-20T00:48:26;99628.38;;;7.01;100.00
64675;BME280;51090;51.512;11.332;2022-12-20T00:50:58;99628.91;;;7.05;100.00
64675;BME280;51090;51.512;11.332;2022-12-20T00:53:24;99623.63;;;7.05;100.00
64675;BME280;51090;51.512;11.332;2022-12-20T00:55:50;99621.81;;;7.05;100.00
64675;BME280;51090;51.512;11.332;2022-12-20T00:58:16;99621.00;;;7.05;100.00
64675;BME280;51090;51.512;11.332;2022-12-20T01:00:42;99620.47;;;7.01;100.00
64675;BME280;51090;51.512;11.332;2022-12-20T01:03:08;99621.47;;;7.00;100.00
64675;BME280;51090;51.512;11.332;2022-12-20T01:05:34;99609.56;;;6.96;100.00
64675;BME280;51090;51.512;11.332;2022-12-20T01:08:00;99619.97;;;6.97;100.00
64675;BME280;51090;51.512;11.332;2022-12-20T01:10:26;99618.63;;;6.93;100.00
64675;BME280;51090;51.512;11.332;2022-12-20T01:12:52;99630.88;;;7.03;100.00
64675;BME280;51090;51.512;11.332;2022-12-20T01:15:19;99623.78;;;7.03;100.00
64675;BME280;51090;51.512;11.332;2022-12-20T01:17:45;99629.09;;;7.11;100.00
64675;BME280;51090;51.512;11.332;2022-12-20T01:20:12;99637.69;;;7.13;100.00
64675;BME280;51090;51.512;11.332;2022-12-20T01:22:37;99639.69;;;7.19;100.00
64675;BME280;51090;51.512;11.332;2022-12-20T01:25:04;99631.63;;;7.21;100.00
64675;BME280;51090;51.512;11.332;2022-12-20T01:27:30;99624.38;;;7.23;100.00
64675;BME280;51090;51.512;11.332;2022-12-20T01:29:56;99624.88;;;7.27;100.00
64675;BME280;51090;51.512;11.332;2022-12-20T01:32:22;99620.25;;;7.29;100.00
64675;BME280;51090;51.512;11.332;2022-12-20T01:34:47;99627.03;;;7.31;100.00
64675;BME280;51090;51.512;11.332;2022-12-20T01:37:13;99632.84;;;7.35;100.00
64675;BME280;51090;51.512;11.332;2022-12-20T01:39:39;99636.97;;;7.37;100.00
64675;BME280;51090;51.512;11.332;2022-12-20T01:42:05;99633.19;;;7.40;100.00
64675;BME280;51090;51.512;11.332;2022-12-20T01:46:56;99624.78;;;7.45;100.00
64675;BME280;51090;51.512;11.332;2022-12-20T01:49:31;99625.44;;;7.47;100.00
64675;BME280;51090;51.512;11.332;2022-12-20T01:52:14;99607.66;;;7.49;100.00
64675;BME280;51090;51.512;11.332;2022-12-20T01:54:49;99605.81;;;7.49;100.00
64675;BME280;51090;51.512;11.332;2022-12-20T01:57:26;99607.16;;;7.53;100.00
64675;BME280;51090;51.512;11.332;2022-12-20T01:59:55;99611.13;;;7.57;100.00
64675;BME280;51090;51.512;11.332;2022-12-20T02:02:22;99600.06;;;7.54;100.00
64675;BME280;51090;51.512;11.332;2022-12-20T02:04:48;99610.63;;;7.54;100.00
64675;BME280;51090;51.512;11.332;2022-12-20T02:07:22;99601.22;;;7.51;100.00
64675;BME280;51090;51.512;11.332;2022-12-20T02:09:51;99589.63;;;7.36;100.00
64675;BME280;51090;51.512;11.332;2022-12-20T02:12:25;99584.81;;;7.31;100.00
64675;BME280;51090;51.512;11.332;2022-12-20T02:18:22;99590.09;;;7.23;100.00
64675;BME280;51090;51.512;11.332;2022-12-20T02:21:30;99593.19;;;7.18;100.00
64675;BME280;51090;51.512;11.332;2022-12-20T02:27:29;99586.41;;;7.08;100.00
64675;BME280;51090;51.512;11.332;2022-12-20T02:32:58;99579.78;;;7.04;100.00
64675;BME280;51090;51.512;11.332;2022-12-20T02:35:29;99577.09;;;6.95;100.00
64675;BME280;51090;51.512;11.332;2022-12-20T02:37:59;99569.84;;;6.89;100.00
64675;BME280;51090;51.512;11.332;2022-12-20T02:40:37;99586.19;;;7.01;100.00
64675;BME280;51090;51.512;11.332;2022-12-20T02:43:07;99570.69;;;6.98;100.00
64675;BME280;51090;51.512;11.332;2022-12-20T02:45:54;99565.75;;;6.95;100.00
64675;BME280;51090;51.512;11.332;2022-12-20T02:48:23;99572.00;;;6.94;100.00
64675;BME280;51090;51.512;11.332;2022-12-20T02:50:53;99574.16;;;6.98;100.00
64675;BME280;51090;51.512;11.332;2022-12-20T02:53:21;99564.75;;;6.96;100.00
64675;BME280;51090;51.512;11.332;2022-12-20T02:56:06;99574.31;;;6.97;100.00
64675;BME280;51090;51.512;11.332;2022-12-20T03:00:04;99583.25;;;7.04;100.00
64675;BME280;51090;51.512;11.332;2022-12-20T03:02:11;99580.75;;;6.94;100.00
64675;BME280;51090;51.512;11.332;2022-12-20T03:04:38;99576.16;;;6.96;100.00
64675;BME280;51090;51.512;11.332;2022-12-20T03:07:09;99565.41;;;6.98;100.00
64675;BME280;51090;51.512;11.332;2022-12-20T03:09:40;99564.59;;;6.97;100.00
64675;BME280;51090;51.512;11.332;2022-12-20T03:12:07;99561.50;;;7.02;100.00
64675;BME280;51090;51.512;11.332;2022-12-20T03:14:33;99537.91;;;7.01;100.00
64675;BME280;51090;51.512;11.332;2022-12-20T03:16:59;99549.47;;;7.08;100.00
64675;BME280;51090;51.512;11.332;2022-12-20T03:19:25;99552.13;;;7.08;100.00
64675;BME280;51090;51.512;11.332;2022-12-20T03:21:51;99554.91;;;7.06;100.00
64675;BME280;51090;51.512;11.332;2022-12-20T03:24:17;99568.59;;;7.10;100.00
64675;BME280;51090;51.512;11.332;2022-12-20T03:26:43;99564.00;;;7.12;100.00
64675;BME280;51090;51.512;11.332;2022-12-20T03:29:09;99555.09;;;7.13;100.00
64675;BME280;51090;51.512;11.332;2022-12-20T03:31:36;99559.38;;;7.14;100.00
64675;BME280;51090;51.512;11.332;2022-12-20T03:34:02;99569.78;;;7.15;100.00
64675;BME280;51090;51.512;11.332;2022-12-20T03:36:28;99568.44;;;7.11;100.00
64675;BME280;51090;51.512;11.332;2022-12-20T03:38:53;99569.47;;;7.18;100.00
64675;BME280;51090;51.512;11.332;2022-12-20T03:41:21;99566.31;;;7.15;100.00
64675;BME280;51090;51.512;11.332;2022-12-20T03:43:48;99560.22;;;7.14;100.00
64675;BME280;51090;51.512;11.332;2022-12-20T03:46:15;99564.34;;;7.17;100.00
64675;BME280;51090;51.512;11.332;2022-12-20T03:48:41;99553.47;;;7.20;100.00
64675;BME280;51090;51.512;11.332;2022-12-20T03:51:06;99548.22;;;7.28;100.00
64675;BME280;51090;51.512;11.332;2022-12-20T03:53:32;99524.34;;;7.30;100.00
64675;BME280;51090;51.512;11.332;2022-12-20T03:55:58;99525.31;;;7.37;100.00
64675;BME280;51090;51.512;11.332;2022-12-20T03:58:24;99527.13;;;7.36;100.00
64675;BME280;51090;51.512;11.332;2022-12-20T04:00:50;99523.53;;;7.37;100.00
64675;BME280;51090;51.512;11.332;2022-12-20T04:03:15;99529.44;;;7.39;100.00
64675;BME280;51090;51.512;11.332;2022-12-20T04:05:41;99531.25;;;7.39;100.00
64675;BME280;51090;51.512;11.332;2022-12-20T04:08:07;99519.75;;;7.40;100.00
64675;BME280;51090;51.512;11.332;2022-12-20T04:10:32;99513.63;;;7.39;100.00
64675;BME280;51090;51.512;11.332;2022-12-20T04:13:18;99535.22;;;7.35;100.00
64675;BME280;51090;51.512;11.332;2022-12-20T04:15:44;99534.09;;;7.37;100.00
64675;BME280;51090;51.512;11.332;2022-12-20T04:18:10;99542.16;;;7.36;100.00
64675;BME280;51090;51.512;11.332;2022-12-20T04:20:35;99543.97;;;7.35;100.00
64675;BME280;51090;51.512;11.332;2022-12-20T04:23:01;99544.94;;;7.34;100.00
64675;BME280;51090;51.512;11.332;2022-12-20T04:25:27;99551.22;;;7.33;100.00
64675;BME280;51090;51.512;11.332;2022-12-20T04:27:52;99555.81;;;7.31;100.00
64675;BME280;51090;51.512;11.332;2022-12-20T04:30:18;99541.94;;;7.29;100.00
64675;BME280;51090;51.512;11.332;2022-12-20T04:32:44;99541.78;;;7.23;100.00
64675;BME280;51090;51.512;11.332;2022-12-20T04:35:10;99545.25;;;7.23;100.00
64675;BME280;51090;51.512;11.332;2022-12-20T04:37:36;99555.66;;;7.25;100.00
64675;BME280;51090;51.512;11.332;2022-12-20T04:40:02;99551.69;;;7.29;100.00
64675;BME280;51090;51.512;11.332;2022-12-20T04:42:27;99561.09;;;7.31;100.00
64675;BME280;51090;51.512;11.332;2022-12-20T04:44:53;99561.91;;;7.32;100.00
64675;BME280;51090;51.512;11.332;2022-12-20T04:47:19;99554.16;;;7.30;100.00
64675;BME280;51090;51.512;11.332;2022-12-20T04:49:44;99549.56;;;7.32;100.00
64675;BME280;51090;51.512;11.332;2022-12-20T04:52:10;99544.94;;;7.34;100.00
64675;BME280;51090;51.512;11.332;2022-12-20T04:54:54;99530.25;;;7.32;100.00
64675;BME280;51090;51.512;11.332;2022-12-20T04:57:20;99538.34;;;7.30;100.00
64675;BME280;51090;51.512;11.332;2022-12-20T04:59:45;99533.06;;;7.30;100.00
64675;BME280;51090;51.512;11.332;2022-12-20T05:02:11;99522.53;;;7.30;100.00
64675;BME280;51090;51.512;11.332;2022-12-20T05:04:37;99523.69;;;7.36;100.00
64675;BME280;51090;51.512;11.332;2022-12-20T05:07:02;99521.84;;;7.36;100.00
64675;BME280;51090;51.512;11.332;2022-12-20T05:09:28;99518.41;;;7.44;100.00
64675;BME280;51090;51.512;11.332;2022-12-20T05:11:54;99520.56;;;7.49;100.00
64675;BME280;51090;51.512;11.332;2022-12-20T05:14:20;99512.31;;;7.52;100.00
64675;BME280;51090;51.512;11.332;2022-12-20T05:16:45;99508.38;;;7.56;100.00
64675;BME280;51090;51.512;11.332;2022-12-20T05:19:11;99498.16;;;7.61;100.00
64675;BME280;51090;51.512;11.332;2022-12-20T05:21:37;99500.78;;;7.69;100.00
64675;BME280;51090;51.512;11.332;2022-12-20T05:24:21;99509.03;;;7.74;100.00
64675;BME280;51090;51.512;11.332;2022-12-20T05:27:05;99511.19;;;7.79;100.00
64675;BME280;51090;51.512;11.332;2022-12-20T05:29:31;99508.22;;;7.82;100.00
64675;BME280;51090;51.512;11.332;2022-12-20T05:31:56;99507.88;;;7.85;100.00
64675;BME280;51090;51.512;11.332;2022-12-20T05:34:22;99491.22;;;7.76;100.00
64675;BME280;51090;51.512;11.332;2022-12-20T05:36:48;99499.28;;;7.83;100.00
64675;BME280;51090;51.512;11.332;2022-12-20T05:39:13;99493.88;;;7.84;100.00
64675;BME280;51090;51.512;11.332;2022-12-20T05:41:39;99497.16;;;7.87;100.00
64675;BME280;51090;51.512;11.332;2022-12-20T05:44:06;99485.59;;;7.88;100.00
64675;BME280;51090;51.512;11.332;2022-12-20T05:46:31;99483.28;;;7.93;100.00
64675;BME280;51090;51.512;11.332;2022-12-20T05:48:57;99487.09;;;7.90;100.00
64675;BME280;51090;51.512;11.332;2022-12-20T05:51:24;99476.69;;;7.97;100.00
64675;BME280;51090;51.512;11.332;2022-12-20T05:53:49;99464.47;;;7.96;100.00
64675;BME280;51090;51.512;11.332;2022-12-20T05:56:15;99457.56;;;7.95;100.00
64675;BME280;51090;51.512;11.332;2022-12-20T05:58:41;99469.41;;;7.99;100.00
64675;BME280;51090;51.512;11.332;2022-12-20T06:01:08;99476.50;;;7.98;100.00
64675;BME280;51090;51.512;11.332;2022-12-20T06:03:36;99474.69;;;7.99;100.00
64675;BME280;51090;51.512;11.332;2022-12-20T06:06:02;99478.34;;;7.98;100.00
64675;BME280;51090;51.512;11.332;2022-12-20T06:08:28;99479.00;;;8.00;100.00
64675;BME280;51090;51.512;11.332;2022-12-20T06:10:54;99464.47;;;7.96;100.00
64675;BME280;51090;51.512;11.332;2022-12-20T06:13:20;99462.16;;;8.01;100.00
64675;BME280;51090;51.512;11.332;2022-12-20T06:15:46;99454.72;;;7.96;100.00
64675;BME280;51090;51.512;11.332;2022-12-20T06:18:12;99466.94;;;7.97;100.00
64675;BME280;51090;51.512;11.332;2022-12-20T06:20:38;99470.56;;;7.96;100.00
64675;BME280;51090;51.512;11.332;2022-12-20T06:23:04;99456.22;;;7.91;100.00
64675;BME280;51090;51.512;11.332;2022-12-20T06:25:30;99463.16;;;7.92;100.00
64675;BME280;51090;51.512;11.332;2022-12-20T06:27:56;99471.72;;;7.94;100.00
64675;BME280;51090;51.512;11.332;2022-12-20T06:30:22;99461.19;;;7.85;100.00
64675;BME280;51090;51.512;11.332;2022-12-20T06:32:48;99460.03;;;7.88;100.00
64675;BME280;51090;51.512;11.332;2022-12-20T06:35:14;99465.63;;;7.85;100.00
64675;BME280;51090;51.512;11.332;2022-12-20T06:37:40;99454.59;;;7.81;100.00
64675;BME280;51090;51.512;11.332;2022-12-20T06:40:11;99452.78;;;7.82;100.00
64675;BME280;51090;51.512;11.332;2022-12-20T06:42:38;99456.25;;;7.82;100.00
64675;BME280;51090;51.512;11.332;2022-12-20T06:45:04;99457.41;;;7.80;100.00
64675;BME280;51090;51.512;11.332;2022-12-20T06:47:30;99456.25;;;7.82;100.00
64675;BME280;51090;51.512;11.332;2022-12-20T06:49:56;99456.09;;;7.84;100.00
64675;BME280;51090;51.512;11.332;2022-12-20T06:52:22;99450.63;;;7.85;100.00
64675;BME280;51090;51.512;11.332;2022-12-20T06:54:48;99448.97;;;7.93;100.00
64675;BME280;51090;51.512;11.332;2022-12-20T06:57:14;99457.69;;;7.93;100.00
64675;BME280;51090;51.512;11.332;2022-12-20T06:59:40;99449.28;;;7.98;100.00
64675;BME280;51090;51.512;11.332;2022-12-20T07:02:06;99450.78;;;8.00;100.00
64675;BME280;51090;51.512;11.332;2022-12-20T07:04:33;99446.50;;;7.99;100.00
64675;BME280;51090;51.512;11.332;2022-12-20T07:06:59;99449.25;;;8.06;100.00
64675;BME280;51090;51.512;11.332;2022-12-20T07:09:25;99463.13;;;8.08;100.00
64675;BME280;51090;51.512;11.332;2022-12-20T07:11:51;99459.50;;;8.09;100.00
64675;BME280;51090;51.512;11.332;2022-12-20T07:14:16;99461.97;;;8.11;100.00
64675;BME280;51090;51.512;11.332;2022-12-20T07:16:42;99464.47;;;8.12;100.00
64675;BME280;51090;51.512;11.332;2022-12-20T07:19:14;99464.13;;;8.15;100.00
64675;BME280;51090;51.512;11.332;2022-12-20T07:21:41;99450.94;;;8.07;100.00
64675;BME280;51090;51.512;11.332;2022-12-20T07:24:07;99464.28;;;8.05;100.00
64675;BME280;51090;51.512;11.332;2022-12-20T07:26:33;99475.66;;;8.14;100.00
64675;BME280;51090;51.512;11.332;2022-12-20T07:29:00;99470.06;;;8.09;100.00
64675;BME280;51090;51.512;11.332;2022-12-20T07:31:26;99475.66;;;8.14;100.00
64675;BME280;51090;51.512;11.332;2022-12-20T07:33:52;99468.25;;;8.10;100.00
64675;BME280;51090;51.512;11.332;2022-12-20T07:36:18;99472.03;;;8.15;100.00
64675;BME280;51090;51.512;11.332;2022-12-20T07:38:44;99464.47;;;8.12;100.00
64675;BME280;51090;51.512;11.332;2022-12-20T07:41:13;99461.63;;;8.14;100.00
64675;BME280;51090;51.512;11.332;2022-12-20T07:43:40;99451.88;;;8.14;100.00
64675;BME280;51090;51.512;11.332;2022-12-20T07:46:07;99456.19;;;8.15;100.00
64675;BME280;51090;51.512;11.332;2022-12-20T07:48:34;99458.00;;;8.15;100.00
64675;BME280;51090;51.512;11.332;2022-12-20T07:51:07;99456.50;;;8.20;100.00
64675;BME280;51090;51.512;11.332;2022-12-20T07:53:38;99462.47;;;8.22;100.00
64675;BME280;51090;51.512;11.332;2022-12-20T07:56:06;99451.03;;;8.22;100.00
64675;BME280;51090;51.512;11.332;2022-12-20T07:58:34;99444.28;;;8.19;100.00
64675;BME280;51090;51.512;11.332;2022-12-20T08:01:02;99459.47;;;8.25;100.00
64675;BME280;51090;51.512;11.332;2022-12-20T08:03:43;99480.56;;;8.34;100.00
64675;BME280;51090;51.512;11.332;2022-12-20T08:06:12;99464.06;;;8.32;100.00
64675;BME280;51090;51.512;11.332;2022-12-20T08:08:44;99471.34;;;8.38;100.00
64675;BME280;51090;51.512;11.332;2022-12-20T08:11:12;99469.34;;;8.48;100.00
64675;BME280;51090;51.512;11.332;2022-12-20T08:13:38;99470.16;;;8.48;100.00
64675;BME280;51090;51.512;11.332;2022-12-20T08:16:05;99460.38;;;8.57;100.00
64675;BME280;51090;51.512;11.332;2022-12-20T08:18:31;99457.69;;;8.65;100.00
64675;BME280;51090;51.512;11.332;2022-12-20T08:20:56;99454.38;;;8.71;100.00
64675;BME280;51090;51.512;11.332;2022-12-20T08:23:22;99458.97;;;8.78;100.00
64675;BME280;51090;51.512;11.332;2022-12-20T08:25:48;99456.81;;;8.81;100.00
64675;BME280;51090;51.512;11.332;2022-12-20T08:28:14;99445.91;;;8.84;100.00
64675;BME280;51090;51.512;11.332;2022-12-20T08:30:40;99452.75;;;8.93;100.00
64675;BME280;51090;51.512;11.332;2022-12-20T08:33:06;99455.03;;;9.05;100.00
64675;BME280;51090;51.512;11.332;2022-12-20T08:35:32;99458.81;;;9.10;100.00
64675;BME280;51090;51.512;11.332;2022-12-20T08:37:58;99457.72;;;9.20;100.00
64675;BME280;51090;51.512;11.332;2022-12-20T08:40:24;99452.41;;;9.28;100.00
64675;BME280;51090;51.512;11.332;2022-12-20T08:42:49;99463.22;;;9.41;100.00
64675;BME280;51090;51.512;11.332;2022-12-20T08:45:15;99470.94;;;9.51;100.00
64675;BME280;51090;51.512;11.332;2022-12-20T08:47:41;99466.03;;;9.63;100.00
64675;BME280;51090;51.512;11.332;2022-12-20T08:50:07;99456.84;;;9.73;100.00
64675;BME280;51090;51.512;11.332;2022-12-20T08:52:33;99455.94;;;9.81;100.00
64675;BME280;51090;51.512;11.332;2022-12-20T08:54:59;99437.69;;;9.86;100.00
64675;BME280;51090;51.512;11.332;2022-12-20T08:57:24;99438.81;;;9.92;100.00
64675;BME280;51090;51.512;11.332;2022-12-20T08:59:50;99439.25;;;9.95;100.00
64675;BME280;51090;51.512;11.332;2022-12-20T09:02:16;99450.88;;;9.94;100.00
64675;BME280;51090;51.512;11.332;2022-12-20T09:04:42;99442.81;;;9.88;100.00
64675;BME280;51090;51.512;11.332;2022-12-20T09:07:09;99438.53;;;9.87;100.00
64675;BME280;51090;51.512;11.332;2022-12-20T09:09:35;99430.03;;;9.91;100.00
64675;BME280;51090;51.512;11.332;2022-12-20T09:12:01;99438.53;;;10.01;100.00
64675;BME280;51090;51.512;11.332;2022-12-20T09:14:27;99440.19;;;10.02;100.00
64675;BME280;51090;51.512;11.332;2022-12-20T09:16:52;99453.44;;;10.02;100.00
64675;BME280;51090;51.512;11.332;2022-12-20T09:19:18;99451.25;;;10.06;100.00
64675;BME280;51090;51.512;11.332;2022-12-20T09:21:44;99429.06;;;10.07;100.00
64675;BME280;51090;51.512;11.332;2022-12-20T09:24:10;99412.25;;;10.00;100.00
64675;BME280;51090;51.512;11.332;2022-12-20T09:26:36;99437.84;;;10.22;100.00
64675;BME280;51090;51.512;11.332;2022-12-20T09:29:02;99433.13;;;10.33;100.00
64675;BME280;51090;51.512;11.332;2022-12-20T09:31:28;99418.63;;;10.50;100.00
64675;BME280;51090;51.512;11.332;2022-12-20T09:33:56;99420.91;;;10.68;100.00
64675;BME280;51090;51.512;11.332;2022-12-20T09:36:24;99417.13;;;10.92;100.00
64675;BME280;51090;51.512;11.332;2022-12-20T09:38:50;99415.03;;;11.09;100.00
64675;BME280;51090;51.512;11.332;2022-12-20T09:41:33;99409.84;;;11.22;100.00
64675;BME280;51090;51.512;11.332;2022-12-20T09:44:14;99417.97;;;11.36;100.00
64675;BME280;51090;51.512;11.332;2022-12-20T09:46:52;99407.59;;;11.41;100.00
64675;BME280;51090;51.512;11.332;2022-12-20T09:49:20;99395.94;;;11.42;100.00
64675;BME280;51090;51.512;11.332;2022-12-20T09:56:00;99382.66;;;11.42;100.00
64675;BME280;51090;51.512;11.332;2022-12-20T09:58:31;99397.00;;;11.47;100.00
64675;BME280;51090;51.512;11.332;2022-12-20T10:01:21;99394.91;;;11.43;100.00
64675;BME280;51090;51.512;11.332;2022-12-20T10:03:49;99389.13;;;11.32;100.00
64675;BME280;51090;51.512;11.332;2022-12-20T10:11:33;99393.25;;;11.14;100.00
64675;BME280;51090;51.512;11.332;2022-12-20T10:14:34;99382.81;;;11.12;100.00
64675;BME280;51090;51.512;11.332;2022-12-20T10:22:59;99376.72;;;10.97;100.00
64675;BME280;51090;51.512;11.332;2022-12-20T10:25:33;99380.16;;;10.90;100.00
64675;BME280;51090;51.512;11.332;2022-12-20T10:28:10;99387.34;;;10.97;100.00
64675;BME280;51090;51.512;11.332;2022-12-20T10:30:37;99390.72;;;11.05;100.00
64675;BME280;51090;51.512;11.332;2022-12-20T10:33:02;99386.34;;;11.19;100.00
64675;BME280;51090;51.512;11.332;2022-12-20T10:35:39;99384.06;;;11.38;100.00
64675;BME280;51090;51.512;11.332;2022-12-20T10:38:13;99365.78;;;11.49;100.00
64675;BME280;51090;51.512;11.332;2022-12-20T10:40:49;99362.16;;;11.57;100.00
64675;BME280;51090;51.512;11.332;2022-12-20T10:43:23;99358.94;;;11.62;100.00
64675;BME280;51090;51.512;11.332;2022-12-20T10:46:10;99359.34;;;11.65;100.00
64675;BME280;51090;51.512;11.332;2022-12-20T10:48:40;99356.75;;;11.72;100.00
64675;BME280;51090;51.512;11.332;2022-12-20T10:53:58;99327.59;;;11.85;100.00
64675;BME280;51090;51.512;11.332;2022-12-20T10:56:30;99326.66;;;11.93;100.00
64675;BME280;51090;51.512;11.332;2022-12-20T11:01:32;99303.16;;;11.90;100.00
64675;BME280;51090;51.512;11.332;2022-12-20T11:04:04;99317.72;;;12.01;100.00
64675;BME280;51090;51.512;11.332;2022-12-20T11:14:30;99309.00;;;11.85;100.00
64675;BME280;51090;51.512;11.332;2022-12-20T11:16:57;99308.47;;;11.90;100.00
64675;BME280;51090;51.512;11.332;2022-12-20T11:19:49;99317.91;;;11.99;100.00
64675;BME280;51090;51.512;11.332;2022-12-20T11:22:47;99307.94;;;12.08;100.00
64675;BME280;51090;51.512;11.332;2022-12-20T11:28:41;99300.19;;;12.13;100.00
64675;BME280;51090;51.512;11.332;2022-12-20T11:34:02;99301.22;;;12.18;100.00
64675;BME280;51090;51.512;11.332;2022-12-20T11:40:25;99290.59;;;12.25;100.00
64675;BME280;51090;51.512;11.332;2022-12-20T11:54:33;99281.53;;;12.06;100.00
64675;BME280;51090;51.512;11.332;2022-12-20T11:57:26;99283.78;;;12.03;100.00
64675;BME280;51090;51.512;11.332;2022-12-20T11:59:58;99274.91;;;11.89;100.00
64675;BME280;51090;51.512;11.332;2022-12-20T12:02:42;99262.81;;;11.80;100.00
64675;BME280;51090;51.512;11.332;2022-12-20T12:05:27;99269.97;;;11.79;100.00
64675;BME280;51090;51.512;11.332;2022-12-20T12:08:02;99259.28;;;11.72;100.00
64675;BME280;51090;51.512;11.332;2022-12-20T12:10:36;99247.78;;;11.65;100.00
64675;BME280;51090;51.512;11.332;2022-12-20T12:16:02;99245.94;;;11.59;100.00
64675;BME280;51090;51.512;11.332;2022-12-20T12:18:32;99252.66;;;11.55;100.00
64675;BME280;51090;51.512;11.332;2022-12-20T12:21:18;99238.38;;;11.56;100.00
64675;BME280;51090;51.512;11.332;2022-12-20T12:24:04;99249.22;;;11.61;100.00
64675;BME280;51090;51.512;11.332;2022-12-20T12:26:38;99245.72;;;11.61;100.00
64675;BME280;51090;51.512;11.332;2022-12-20T12:32:00;99250.28;;;11.67;100.00
64675;BME280;51090;51.512;11.332;2022-12-20T12:38:02;99252.28;;;11.65;100.00
64675;BME280;51090;51.512;11.332;2022-12-20T12:45:51;99264.25;;;11.82;100.00
64675;BME280;51090;51.512;11.332;2022-12-20T12:49:09;99264.28;;;11.89;100.00
64675;BME280;51090;51.512;11.332;2022-12-20T12:51:39;99249.31;;;11.81;100.00
64675;BME280;51090;51.512;11.332;2022-12-20T12:54:18;99244.25;;;11.86;100.00
64675;BME280;51090;51.512;11.332;2022-12-20T12:56:51;99237.06;;;11.80;100.00
64675;BME280;51090;51.512;11.332;2022-12-20T13:17:56;99249.81;;;11.63;100.00
64675;BME280;51090;51.512;11.332;2022-12-20T13:20:28;99253.13;;;11.65;100.00
64675;BME280;51090;51.512;11.332;2022-12-20T13:25:40;99231.56;;;11.47;100.00
64675;BME280;51090;51.512;11.332;2022-12-20T13:33:41;99226.19;;;11.33;100.00
64675;BME280;51090;51.512;11.332;2022-12-20T13:41:29;99226.28;;;11.19;100.00
64675;BME280;51090;51.512;11.332;2022-12-20T13:49:54;99224.19;;;11.14;100.00
64675;BME280;51090;51.512;11.332;2022-12-20T13:52:31;99228.06;;;11.11;100.00
64675;BME280;51090;51.512;11.332;2022-12-20T13:55:05;99228.44;;;11.08;100.00
64675;BME280;51090;51.512;11.332;2022-12-20T13:57:41;99222.13;;;11.09;100.00
64675;BME280;51090;51.512;11.332;2022-12-20T14:00:22;99219.69;;;11.08;100.00
64675;BME280;51090;51.512;11.332;2022-12-20T14:02:51;99234.34;;;11.04;100.00
64675;BME280;51090;51.512;11.332;2022-12-20T14:05:23;99238.00;;;11.03;100.00
64675;BME280;51090;51.512;11.332;2022-12-20T14:08:07;99238.19;;;11.01;100.00
64675;BME280;51090;51.512;11.332;2022-12-20T14:10:33;99234.31;;;10.97;100.00
64675;BME280;51090;51.512;11.332;2022-12-20T14:12:59;99236.06;;;10.90;100.00
64675;BME280;51090;51.512;11.332;2022-12-20T14:15:29;99240.19;;;10.93;100.00
64675;BME280;51090;51.512;11.332;2022-12-20T14:17:56;99225.47;;;10.90;100.00
64675;BME280;51090;51.512;11.332;2022-12-20T14:20:30;99223.69;;;10.97;100.00
64675;BME280;51090;51.512;11.332;2022-12-20T14:23:16;99220.00;;;10.98;100.00
64675;BME280;51090;51.512;11.332;2022-12-20T14:25:46;99223.69;;;10.97;100.00
64675;BME280;51090;51.512;11.332;2022-12-20T14:28:34;99210.59;;;10.96;100.00
64675;BME280;51090;51.512;11.332;2022-12-20T14:31:01;99197.28;;;10.89;100.00
64675;BME280;51090;51.512;11.332;2022-12-20T14:33:39;99204.03;;;10.92;100.00
64675;BME280;51090;51.512;11.332;2022-12-20T14:36:18;99195.72;;;10.95;100.00
64675;BME280;51090;51.512;11.332;2022-12-20T14:38:47;99192.59;;;10.91;100.00
64675;BME280;51090;51.512;11.332;2022-12-20T14:41:39;99180.38;;;10.90;100.00
64675;BME280;51090;51.512;11.332;2022-12-20T14:44:21;99177.88;;;10.88;100.00
64675;BME280;51090;51.512;11.332;2022-12-20T14:46:54;99178.69;;;10.89;100.00
64675;BME280;51090;51.512;11.332;2022-12-20T14:49:37;99174.81;;;10.85;100.00
64675;BME280;51090;51.512;11.332;2022-12-20T14:52:28;99183.59;;;10.85;100.00
64675;BME280;51090;51.512;11.332;2022-12-20T14:54:58;99179.50;;;10.83;100.00
64675;BME280;51090;51.512;11.332;2022-12-20T14:57:38;99179.31;;;10.84;100.00